August 14, 2022

Time Code Weather Temp. Visibility Ceiling Wind METAR/SPECI
12:53 am
V
81 °F 10 mi 25,000 ft Var 000° 0 kt METAR KMIA 140453Z 00000KT 10SM SCT120 BKN250 27/22 A3003 RMK AO2 SLP168 T02720217 403330267 $

August 13, 2022

Time Code Weather Temp. Visibility Ceiling Wind METAR/SPECI
11:53 pm
V
81 °F 10 mi 12,000 ft Var 000° 0 kt METAR KMIA 140353Z 00000KT 10SM BKN120 BKN250 27/22 A3003 RMK AO2 SLP168 T02670217 $
10:53 pm
V
81 °F 10 mi 18,000 ft 340° 340° 3 kt METAR KMIA 140253Z 34003KT 10SM BKN180 BKN250 27/22 A3002 RMK AO2 SLP164 T02720222 50004 $
9:53 pm
V
82 °F 10 mi 18,000 ft Var Var 3 kt METAR KMIA 140153Z COR VRB03KT 10SM FEW022 BKN180 OVC250 28/23 A3003 RMK AO2 SLP167 T02830228 $
8:53 pm
V
82 °F 10 mi 18,000 ft Var 000° 0 kt METAR KMIA 140053Z 00000KT 10SM SCT030 BKN180 BKN250 28/23 A3001 RMK AO2 SLP161 T02830233 $
7:53 pm
V
84 °F 10 mi 25,000 ft 270° 270° 4 kt METAR KMIA 132353Z 27004KT 10SM SCT033 SCT130 BKN250 29/23 A3000 RMK AO2 SLP160 CB DSNT N 60001 T02890233 10317 20267 53003 $
6:53 pm
V
86 °F 10 mi 25,000 ft Var 000° 0 kt METAR KMIA 132253Z 00000KT 10SM FEW025 SCT130 BKN250 30/23 A3000 RMK AO2 SLP159 CB DSNT NW T03000228 $
5:53 pm
V
88 °F 10 mi 25,000 ft 190° 190° 3 kt METAR KMIA 132153Z 19003KT 10SM FEW025 FEW070 SCT130 BKN250 31/22 A3000 RMK AO2 SLP158 CB DSNT W-NW T03060222 $
4:53 pm
V
88 °F 10 mi 25,000 ft 130° 130° 8 kt METAR KMIA 132053Z 13008KT 10SM FEW025 FEW070 SCT110 BKN250 31/23 A2999 RMK AO2 LTG DSNT W SLP157 CB DSNT W MOV STNRY 60001 T03060233 58005 $
3:53 pm
V
84 °F 10 mi 25,000 ft 120° 120° 8 kt METAR KMIA 131953Z 12008KT 10SM FEW025 FEW070 SCT110 BKN250 29/24 A3001 RMK AO2 LTG DSNT SW RAE19 SLP162 CB DSNT SW-NW MOV STNRY P0000 T02940239 $
3:00 pm
V
81 °F 10 mi 11,000 ft Var 000° 0 kt METAR KMIA 131900Z 00000KT 10SM -RA FEW025 SCT050 BKN110 BKN250 27/23 A3002 RMK AO2 LTG DSNT SW AND W CB DSNT N AND SW-W P0000 T02670233 $
2:53 pm
V
81 °F 10 mi 11,000 ft 260° 260° 5 kt METAR KMIA 131853Z 26005KT 10SM VCTS -RA SCT025 SCT050 BKN110 BKN250 27/23 A3002 RMK AO2 LTG DSNT SW AND W RAB30 TSE49 SLP167 TS DSIPTD CB DSNT N AND SW-W P0001 T02670233 $
1:53 pm
V
90 °F 10 mi 3,000 ft 110° 110° 12 kt METAR KMIA 131753Z 11012KT 10SM TS FEW009 SCT025CB BKN030 BKN250 32/22 A3001 RMK AO2 LTG DSNT SW-N SLP163 OCNL LTGICCG N AND SW TS N AND SW MOV STNRY CB DSNT S T03170217 10333 20283 58011 $
12:53 pm
V
91 °F 10 mi 4,500 ft 150° 150° 8 kt METAR KMIA 131653Z 15008KT 10SM TS SCT035CB BKN045 BKN250 33/22 A3003 RMK AO2 TSB37 SLP169 OCNL LTGICCG N TS N MOV S T03330222 $
12:37 pm
V
91 °F 10 mi 4,500 ft 120° 120° 8 kt METAR KMIA 131637Z 12008KT 10SM TS SCT035CB BKN045 BKN250 33/22 A3003 RMK AO2 LTG DSNT N AND NE TSB37 OCNL LTGICCG N TS N MOV S T03280217 $
11:53 am
V
91 °F 10 mi 3,500 ft 140° 140° 9 kt METAR KMIA 131553Z 14009KT 10SM BKN035 BKN075 BKN250 33/22 A3004 RMK AO2 SLP171 T03280222 $
10:53 am
V
90 °F 10 mi 3,300 ft 220° 220° 6 kt METAR KMIA 131453Z 22006KT 10SM BKN033 BKN250 32/23 A3004 RMK AO2 SLP174 T03170233 51010 $
9:53 am
V
88 °F 10 mi 3,000 ft Var 000° 0 kt METAR KMIA 131353Z 00000KT 10SM FEW023 BKN030 BKN250 31/24 A3003 RMK AO2 SLP170 T03110244 $
8:53 am
V
86 °F 10 mi 25,000 ft Var 000° 0 kt METAR KMIA 131253Z 00000KT 10SM FEW030 FEW200 BKN250 30/24 A3003 RMK AO2 SLP169 T03000244 $
7:53 am
V
82 °F 10 mi 25,000 ft 330° 330° 3 kt METAR KMIA 131153Z 33003KT 10SM FEW028 SCT200 BKN250 28/24 A3002 RMK AO2 SLP164 T02830239 10289 20272 53004 $
6:53 am
V
82 °F 10 mi - 350° 350° 3 kt METAR KMIA 131053Z COR 35003KT 10SM FEW028CB SCT250 28/24 A3001 RMK AO2 SLP162 CB NE MOV W T02830239 $
5:53 am
V
82 °F 10 mi - Var 000° 0 kt METAR KMIA 130953Z 00000KT 10SM FEW028 SCT250 28/24 A3000 RMK AO2 SLP160 T02830239 $
4:53 am
V
82 °F 10 mi - Var 000° 0 kt METAR KMIA 130853Z 00000KT 10SM FEW028 FEW090 SCT250 28/23 A3001 RMK AO2 SLP160 T02780233 56007 $
3:53 am
V
84 °F 10 mi - Var 000° 0 kt METAR KMIA 130753Z 00000KT 10SM FEW028 FEW250 29/24 A3001 RMK AO2 SLP163 T02890239 $
2:53 am
V
84 °F 10 mi 25,000 ft 110° 110° 4 kt METAR KMIA 130653Z 11004KT 10SM FEW090 BKN250 29/23 A3001 RMK AO2 SLP163 T02890233 $
1:53 am
V
84 °F 10 mi 25,000 ft 110° 110° 3 kt METAR KMIA 130553Z 11003KT 10SM FEW023 BKN250 29/24 A3002 RMK AO2 SLP167 T02890239 10300 20283 58006 $
12:53 am
V
84 °F 10 mi - 150° 150° 3 kt METAR KMIA 130453Z 15003KT 10SM FEW023 FEW250 29/24 A3004 RMK AO2 SLP171 T02890239 403330278 $

August 12, 2022

Time Code Weather Temp. Visibility Ceiling Wind METAR/SPECI
11:53 pm
V
84 °F 10 mi - Var 000° 0 kt METAR KMIA 130353Z 00000KT 10SM FEW027 SCT250 29/23 A3004 RMK AO2 SLP172 T02890233 $
10:53 pm
V
84 °F 10 mi 23,000 ft 130° 130° 5 kt METAR KMIA 130253Z 13005KT 10SM FEW026 FEW090 BKN230 29/23 A3004 RMK AO2 SLP173 T02890228 51014 $
9:53 pm
V
84 °F 10 mi 23,000 ft 120° 120° 8 kt METAR KMIA 130153Z 12008KT 10SM FEW025 SCT060 BKN230 29/24 A3003 RMK AO2 SLP170 T02940239 $
8:53 pm
V
84 °F 10 mi 25,000 ft 130° 130° 7 kt METAR KMIA 130053Z 13007KT 10SM FEW026 SCT200 BKN250 29/23 A3002 RMK AO2 SLP164 T02940233 $
7:53 pm
V
86 °F 10 mi 25,000 ft 140° 140° 7 - 14 kt METAR KMIA 122353Z 14007G14KT 10SM FEW027 SCT200 BKN250 30/23 A3000 RMK AO2 SLP159 CB DSNT NW T03000233 10333 20300 53002 $
6:53 pm
V
88 °F 10 mi 25,000 ft 110° 110° 10 kt METAR KMIA 122253Z 11010KT 10SM FEW035 BKN250 31/22 A2999 RMK AO2 SLP157 CB DSNT NW T03060222 $
5:53 pm
V
88 °F 10 mi 25,000 ft 110° 110° 12 kt METAR KMIA 122153Z COR 11012KT 10SM FEW035 BKN250 31/23 A2999 RMK AO2 SLP154 T03110233 $
4:53 pm
V
90 °F 10 mi 25,000 ft 120° 120° 9 kt METAR KMIA 122053Z 12009KT 10SM SCT037 BKN250 32/23 A2999 RMK AO2 SLP157 T03220233 56015 $
3:53 pm
V
91 °F 10 mi 25,000 ft 130° 130° 10 kt METAR KMIA 121953Z 13010KT 10SM FEW039 BKN250 33/22 A3001 RMK AO2 SLP161 T03280222
2:53 pm
V
90 °F 10 mi 25,000 ft 110° 110° 8 - 18 kt METAR KMIA 121853Z 11008G18KT 10SM SCT035 BKN250 32/22 A3002 RMK AO2 SLP166 T03220222
1:53 pm
V
91 °F 10 mi 25,000 ft 120° 120° 11 - 18 kt METAR KMIA 121753Z 12011G18KT 10SM SCT035 BKN250 33/23 A3004 RMK AO2 SLP172 T03280228 10333 20283 58011
12:53 pm
V
90 °F 10 mi 3,500 ft 090° 090° 9 kt METAR KMIA 121653Z 09009KT 10SM BKN035 BKN240 32/23 A3005 RMK AO2 SLP175 T03220228 $
11:53 am
V
90 °F 10 mi 5,000 ft 130° 130° 10 kt METAR KMIA 121553Z 13010KT 10SM SCT032 BKN050 BKN240 32/22 A3006 RMK AO2 SLP180 T03170222 $
10:53 am
V
88 °F 10 mi 24,000 ft 090° 090° 11 kt METAR KMIA 121453Z 09011KT 10SM SCT030 SCT050 BKN240 31/23 A3007 RMK AO2 SLP182 T03060228 51003 $
9:53 am
V
88 °F 10 mi 4,000 ft 100° 100° 10 - 18 kt METAR KMIA 121353Z 10010G18KT 10SM SCT028 BKN040 BKN240 31/24 A3007 RMK AO2 SLP181 T03060239 $
8:53 am
V
84 °F 10 mi 24,000 ft 110° 110° 9 kt METAR KMIA 121253Z 11009KT 10SM SCT030 BKN240 29/23 A3007 RMK AO2 SLP181 T02940228 $
7:53 am
V
82 °F 10 mi 24,000 ft 100° 100° 6 kt METAR KMIA 121153Z COR 10006KT 10SM FEW028 BKN240 28/23 A3006 RMK AO2 SLP180 T02830228 53009 $
6:53 am
V
82 °F 10 mi - 100° 100° 7 kt METAR KMIA 121053Z 10007KT 10SM SCT027 SCT240 28/22 A3005 RMK AO2 SLP174 T02830217 $
5:53 am
V
82 °F 10 mi - 090° 090° 6 kt METAR KMIA 120953Z 09006KT 10SM SCT031 SCT250 28/23 A3004 RMK AO2 SLP171 T02780228 $
4:53 am
V
82 °F 10 mi - 110° 110° 6 kt METAR KMIA 120853Z 11006KT 10SM SCT026 28/23 A3003 RMK AO2 SLP171 T02780228 56008 $
3:53 am
V
82 °F 10 mi - 090° 090° 4 kt METAR KMIA 120753Z 09004KT 10SM SCT027 28/23 A3004 RMK AO2 SLP173 T02780228 $
2:53 am
V
82 °F 10 mi - 100° 100° 6 kt METAR KMIA 120653Z 10006KT 10SM SCT026 28/23 A3005 RMK AO2 SLP175 T02780233 $
1:53 am
V
82 °F 10 mi - 090° 090° 8 kt METAR KMIA 120553Z 09008KT 10SM FEW025 28/23 A3006 RMK AO2 SLP179 T02780233 58003 $
12:53 am
V
84 °F 10 mi - 090° 090° 7 kt METAR KMIA 120453Z 09007KT 10SM SCT025 29/23 A3007 RMK AO2 SLP183 T02890233 $

August 11, 2022

Time Code Weather Temp. Visibility Ceiling Wind METAR/SPECI
11:53 pm
V
84 °F 10 mi - 080° 080° 7 kt METAR KMIA 120353Z 08007KT 10SM SCT025 SCT250 29/24 A3008 RMK AO2 SLP186 T02890239 $
10:53 pm
V
82 °F 10 mi - 090° 090° 9 kt METAR KMIA 120253Z 09009KT 10SM SCT028 28/23 A3007 RMK AO2 SLP182 T02780233 50008 $
Older data

We and third parties follow your internet behavior on our website with cookies. If you continue, we assume you agree with our cookie policy. Learn more